Terminal Aerodrome Forecast
Issued by NWS North Platte, NE

Home | Current Version | Previous Version | Text Only | Print | Product List | Glossary On
Versions: 1 2 3 4 5 6 7 8 9 10 11 12 13 14 15 16 17 18 19 20 21 22 23 24 25 26 27 28 29 30
000
FTUS43 KLBF 172300
TAFLBF
TAF
KLBF 172335Z 1800/1824 11009KT P6SM SCT200
     FM180800 10005KT 6SM BR SCT003 BKN100
      TEMPO 1808/1810 3SM BR BKN003
     FM181200 12006KT 3SM BR OVC002
     FM181600 15008KT 6SM BR OVC007
      TEMPO 1816/1818 P6SM NSW SCT007
     FM181800 15012KT P6SM SCT007=

USA.gov is the U.S. government's official web portal to all federal, state and local government web resources and services.